Takapuna, New Zealand
Current Conditions -  °F | °C
As of 4:30 AM on Saturday 29 Nov 2014 (Local Time) from NZAA Reporting Station
Broken Clouds Broken Clouds  
Wind Chill: 55°   Ceiling: 4800
Heat Index: 55°   Visibility: 6mi
Dew Point: 46°   Wind: 15mph
Humidity: 72%   Direction: 250°WSW
Pressure: 29.85"   Gusts: 26mph
Location:  36.79°S, 174.77°E
Report Text: NZAA 281630Z AUTO 25013G23KT 9999 FEW030/// SCT039/// BKN048///13/08 Q1011 TEMPO 7000 SHRA
Loading
Personal Weather Stations






























Interactive Weather Map New forecast layout! Learn more

10-Day Weather Forecast

Advertisements
Track Severe Weather on mobile